Airport View

Enter AWOS ICAO identifier for current METAR.

ex. KFNL

KRCZ 220010Z AUTO 16004KT 10SM CLR 25/13 A3021 RMK AO2 T02490128

22 Sep 2019 00:14

Frequency: 118.775

Phone: 910-997-4093

Other Area AWOS: KCQW - KHFF - KBBP - KAFP

TAF KLBT 212320Z 2200/2224 00000KT P6SM SKC FM221700 18004KT P6SM FEW050 AMD NOT SKED